[source: ADDS]
METAR
EDVE 261950Z 33008KT 290V360 CAVOK 23/13 Q1023

TAF EDVE 261700Z 2618/2621 31012KT 9999 SCT030 BECMG 2618/2620 30007KT EDDV 262250Z 31010KT 280V340 9999 BKN016 16/12 Q1026

TAF EDDV 261700Z 2618/2718 31012KT 9999 SCT030 BECMG 2619/2621 30006KT TEMPO 2621/2706 BKN013 BECMG 2706/2708 31011KT ETHS 262220Z 33011KT 9999 BKN016 16/11 Q1025 WHT

TAF AMD ETHS 261440Z 2614/2623 33010KT 9999 NSW SCT320 TEMPO 2614/2617 33015G25KT 9999 NSW FEW050 SCT240 CANCEL 1500 ETHC 262220Z 28004KT 9999 BKN016 16/13 Q1025 WHT

TAF AMD ETHC 261711Z 2614/2623 32010KT 9999 NSW SCT300 TEMPO 2614/2618 30015G25KT 9999 NSW FEW060 CANCEL 1720 EDVK 261950Z 33010KT CAVOK 23/18 Q1024

TAF EDVK 262000Z 2621/2703 33010KT CAVOK TEMPO 2701/2703 BKN009
TAF
TAF EDVE 261700Z 2618/2621 31012KT 9999 SCT030 BECMG 2618/2620 30007KT

TAF EDDV 261700Z 2618/2718 31012KT 9999 SCT030 BECMG 2619/2621 30006KT TEMPO 2621/2706 BKN013 BECMG 2706/2708 31011KT

TAF AMD ETHS 261440Z 2614/2623 33010KT 9999 NSW SCT320 TEMPO 2614/2617 33015G25KT 9999 NSW FEW050 SCT240 CANCEL 1500

TAF AMD ETHC 261711Z 2614/2623 32010KT 9999 NSW SCT300 TEMPO 2614/2618 30015G25KT 9999 NSW FEW060 CANCEL 1720

TAF EDVK 262000Z 2621/2703 33010KT CAVOK TEMPO 2701/2703 BKN009

SR / SS: 02:58 / 19:43 UTC (EDVE 2019-06-27)
Herzlich Willkommen im Verein Christoph und viel Erfolg für deine weitere Ausbildung! +++ Und wieder ein neue Pilot. Wir beglückwünschen Max zur erfolgreichen PPL-Prüfung und wünschen Always Happy Landings! +++ Tibor hat die PPL-Prüfung bestanden. Gratulation und Always Happy Landings! +++ Mathias und Stefan haben die theoretische Prüfung bestanden! Herzlichen Glückwunsch und weiterhin viel Erfolg für die restliche Ausbildung! +++ Herzlich Willkommen in der FFG Jan! +++ Miro hat seine Praktische Prüfung bestanden! Herzlichen Glückwunsch und Always Happy Landings! +++ Stefan hat sich freigeflogen. Herzlichen Glückwunsch und weiterhin always happy landings! +++ David und Christian haben die Nachtflugberechtigung erhalten. Herzlichen Glückwunsch und viel Spaß beim Erleben der Faszination "Nachtflug"! +++ Hallo Florian! Willkommen im Verein und viel Erfolg für deine Ausbildung! +++ Maximilian hat sich freigeflogen! Herzlichen Glückwunsch und weiter so! +++ Hallo und herzlich Willkommen Hong! Viel Spaß bei deiner Ausbildung!

 

Das Prinzip des Heizgerätes zum Vorheizen unserer Flugzeuge ist einfach: Ein Gasbrenner erhitzt Luft und bläst sie in eine Blechkiste. Dort beschleunigt ein großer Lüfter die Luft und drückt sie durch Luftschläuche in den Motorraum eines Flugzeuges. Nach etwa 20-30 Minuten Vorheizzeit ist eine ausreichende Temperatur zum Motorstart vorhanden.

Weiterlesen ...

Auch im Winter stehen unsere Flugzeuge sicher untergebracht in unserer Halle. Schneelast- und sturmwinderprobt ist sie bereits und hat diese Wettereinflüsse prima überstanden. Im Winter sind bei Schnee und Eis ein paar Erfahrungswerte nützlich:

Weiterlesen ...

Die Halle erlaubt eine einfache Aufstellung der Luftfahrzeuge. Jedem Flugzeug ist ein fester Platz zugewiesen der es erlaubt, mit geringem Aufwand das gewünschte Flugzeug nach vorne zu holen. Ziel bei der gewählten Aufstellung ist es,

Weiterlesen ...

Das Tor der Halle ist ein sogenanntes Planentor, es funktioniert ungefähr so wie ein Duschvorhang. Die linke und die rechte Hälfte des Tores waren in der Mitte durch sechs Gurte verbunden (drei an der Innenseite, drei an der Außenseite), wenn das Tor geschlossen ist.

Der obere Gurt (innen und außen) ist für normal große Leute

Weiterlesen ...

Die installierte elektrische Anlage ist wartungsfrei. Das Licht wird automatisch, durch Bewegungssensoren gesteuert, ein- und ausgeschaltet.

Weiterlesen ...

Letztes NOTAM EDVE
von 04.07.2019 0730Z bis 04.07.2019 1030Z
BRUENKENDORF DVOR/DME BKD 117.7MHZ/CH124X U/S.

Letztes NOTAM EDCB
von 30.06.2019 1600Z bis 08.07.2019 1800Z
ASPHALT RWY 09/27 CLSD: JUL 01 1600 - JUL 07 1800 GRASS RWY 09/27 CLSD: JUN 30 1600 - JUL 08 1800.

Letztes NOTAM EDBC
von 16.07.2019 0900Z bis 17.07.2019 1500Z
16 0900-1500, 17 0700-1500
MAGDEBURG VOR/DME MAG FREQ 110.45 MHZ / CH41Y ON MAINTENANCE. DO NOT USE, FALSE INDICATIONS POSSIBLE. [more]


Letztes NOTAM EDVM
von 25.06.2019 0700Z bis PERM
SAFETYZONE FOR PJE ESTABLISHED ON APRON 1, TWY D BTN TWY G AND B AND TWY B SOUTH TWY D. DURING PJE ACT START UP OF ENGINES NOT PERMITTED. ACTUAL [more]

Letztes NOTAM EDDV
von 28.06.2019 0600Z bis 26.09.2019 2350Z
SARSTEDT VOR/DME SAS 114.45MHZ/CH91Y, THE VOR-PART MAY ONLY BE USED FOR THE RADIALS IN THE PUBLISHED EN-ROUTE, APCH AND DEP PROCEDUR [more]

Letztes NOTAM EDVK
von 18.06.2019 1423Z bis 30.08.2019 2159Z
APRON GENERAL AVIATION, WIP AT SOUTHERN PART.

          aerodata150     Radio38